Time;durP1;ratioP1;P1;durP2;ratioP2;P2;SDS_P1;SDS_P2;PMS_P1;PMS_P2;Temp;Humidity;BMP_temperature;BMP_pressure;BME280_temperature;BME280_humidity;BME280_pressure;Samples;Min_cycle;Max_cycle;Signal;HPM_P1;HPM_P2
2022/05/06 00:02:05;;;;;;;1999.90;999.90;;;13.80;99.90;;;;;;4951030;29;20550;-74
2022/05/06 00:04:31;;;;;;;1999.90;999.90;;;13.60;99.90;;;;;;4950473;29;20211;-74
2022/05/06 00:06:56;;;;;;;1999.90;999.90;;;13.60;99.90;;;;;;4954206;29;20984;-75
2022/05/06 00:09:23;;;;;;;1999.90;999.90;;;13.60;99.90;;;;;;4954344;28;20178;-74
2022/05/06 00:11:49;;;;;;;1999.90;999.90;;;13.60;99.90;;;;;;4954261;29;20175;-75
2022/05/06 00:14:14;;;;;;;1999.90;999.90;;;13.50;99.90;;;;;;4953940;29;20796;-74
2022/05/06 00:16:40;;;;;;;1999.90;999.90;;;13.50;99.90;;;;;;4954220;29;20416;-75
2022/05/06 00:19:05;;;;;;;1999.90;999.90;;;13.40;99.90;;;;;;4954195;29;20243;-75
2022/05/06 00:21:31;;;;;;;1999.90;999.90;;;13.30;99.90;;;;;;4954084;29;20532;-75
2022/05/06 00:23:57;;;;;;;1999.90;999.90;;;13.20;99.90;;;;;;4953888;29;20208;-74
2022/05/06 00:26:22;;;;;;;1999.90;999.90;;;13.10;99.90;;;;;;4953844;29;20642;-74
2022/05/06 00:28:48;;;;;;;1999.90;999.90;;;13.10;99.90;;;;;;4954015;29;20176;-74
2022/05/06 00:31:14;;;;;;;1999.90;999.90;;;13.00;99.90;;;;;;4954151;28;20176;-74
2022/05/06 00:33:39;;;;;;;1999.90;999.90;;;13.00;99.90;;;;;;4953871;29;20244;-74
2022/05/06 00:36:05;;;;;;;1999.90;999.90;;;12.90;99.90;;;;;;4953642;29;20178;-75
2022/05/06 00:38:31;;;;;;;1999.90;999.90;;;12.90;99.90;;;;;;4953811;29;20178;-75
2022/05/06 00:40:57;;;;;;;1999.90;999.90;;;12.80;99.90;;;;;;4953836;29;20421;-75
2022/05/06 00:43:25;;;;;;;1999.90;999.90;;;12.70;99.90;;;;;;4953711;29;20430;-75
2022/05/06 00:45:55;;;;;;;1999.90;999.90;;;12.60;99.90;;;;;;4953514;29;20174;-75
2022/05/06 00:48:26;;;;;;;1999.90;999.90;;;12.50;99.90;;;;;;4953674;29;20465;-75
2022/05/06 00:50:53;;;;;;;1999.90;999.90;;;12.50;99.90;;;;;;4953647;29;20889;-75
2022/05/06 00:53:19;;;;;;;1999.90;999.90;;;12.40;99.90;;;;;;4953599;29;20429;-75
2022/05/06 00:55:46;;;;;;;1999.90;999.90;;;12.40;99.90;;;;;;4953346;29;20417;-75
2022/05/06 00:58:13;;;;;;;1999.90;999.90;;;12.30;99.90;;;;;;4953603;29;20254;-74
2022/05/06 01:00:38;;;;;;;1999.90;999.90;;;12.30;99.90;;;;;;4953536;29;20420;-74
2022/05/06 01:03:04;;;;;;;1999.90;999.90;;;12.30;99.90;;;;;;4953502;29;20440;-74
2022/05/06 01:05:30;;;;;;;1999.90;999.90;;;12.30;99.90;;;;;;4953086;29;20215;-74
2022/05/06 01:07:58;;;;;;;1999.90;999.90;;;12.30;99.90;;;;;;4953485;29;20206;-75
2022/05/06 01:10:23;;;;;;;1999.90;999.90;;;12.30;99.90;;;;;;4953510;29;20815;-75
2022/05/06 01:12:50;;;;;;;1999.90;999.90;;;12.30;99.90;;;;;;4953384;28;20457;-74
2022/05/06 01:15:25;;;;;;;1999.90;999.90;;;12.30;99.90;;;;;;4953141;29;20182;-74
2022/05/06 01:17:54;;;;;;;1999.90;999.90;;;12.20;99.90;;;;;;4953191;29;20441;-74
2022/05/06 01:20:21;;;;;;;1999.90;999.90;;;12.20;99.90;;;;;;4953298;29;20961;-74
2022/05/06 01:22:58;;;;;;;1999.90;999.90;;;12.20;99.90;;;;;;4953123;29;20802;-74
2022/05/06 01:25:25;;;;;;;1999.90;999.90;;;12.10;99.90;;;;;;4953005;29;20436;-74
2022/05/06 01:28:03;;;;;;;1999.90;999.90;;;12.00;99.90;;;;;;4953040;29;20508;-74
2022/05/06 01:30:38;;;;;;;1999.90;999.90;;;12.00;99.90;;;;;;4953060;29;20423;-74
2022/05/06 01:33:06;;;;;;;1999.90;999.90;;;11.90;99.90;;;;;;4953061;29;20434;-74
2022/05/06 01:35:57;;;;;;;1999.90;999.90;;;11.80;99.90;;;;;;4952919;28;20929;-74
2022/05/06 01:38:42;;;;;;;1999.90;999.90;;;11.70;99.90;;;;;;5011982;28;20932;-74
2022/05/06 01:41:15;;;;;;;1999.90;999.90;;;11.60;99.90;;;;;;4953044;29;20440;-74
2022/05/06 01:43:49;;;;;;;1999.90;999.90;;;11.60;99.90;;;;;;4952840;29;20431;-74
2022/05/06 01:46:15;;;;;;;1999.90;999.90;;;11.50;99.90;;;;;;4952764;29;20468;-74
2022/05/06 01:48:42;;;;;;;1999.90;999.90;;;11.40;99.90;;;;;;5019078;28;20472;-74
2022/05/06 01:51:10;;;;;;;1999.90;999.90;;;11.40;99.90;;;;;;5019008;28;20411;-74
2022/05/06 01:53:36;;;;;;;1999.90;999.90;;;11.40;99.90;;;;;;4952726;29;20845;-74
2022/05/06 01:56:03;;;;;;;1999.90;999.90;;;11.40;99.90;;;;;;4952498;29;20440;-74
2022/05/06 01:58:29;;;;;;;1999.90;999.90;;;11.40;99.90;;;;;;4952685;29;20457;-74
2022/05/06 02:00:55;;;;;;;1999.90;999.90;;;11.30;99.90;;;;;;4952637;29;20419;-74
2022/05/06 02:06:05;;;;;;;1999.90;999.90;;;11.10;99.90;;;;;;4952388;29;20182;-74
2022/05/06 02:08:30;;;;;;;1999.90;999.90;;;11.10;99.90;;;;;;4952511;29;20480;-74
2022/05/06 02:10:56;;;;;;;1999.90;999.90;;;11.00;99.90;;;;;;4952503;29;20324;-74
2022/05/06 02:13:21;;;;;;;1999.90;999.90;;;11.00;99.90;;;;;;4952418;29;20187;-74
2022/05/06 02:15:47;;;;;;;1999.90;999.90;;;11.10;99.90;;;;;;4952294;29;20171;-74
2022/05/06 02:18:13;;;;;;;1999.90;999.90;;;11.00;99.90;;;;;;4952354;29;20176;-74
2022/05/06 02:20:38;;;;;;;1999.90;999.90;;;10.90;99.90;;;;;;4952388;29;20171;-74
2022/05/06 02:23:04;;;;;;;1999.90;999.90;;;10.90;99.90;;;;;;4952241;29;20684;-74
2022/05/06 02:25:30;;;;;;;1999.90;999.90;;;11.00;99.90;;;;;;4952029;29;20190;-74
2022/05/06 02:27:55;;;;;;;1999.90;999.90;;;10.90;99.90;;;;;;4951471;28;20210;-74
2022/05/06 02:33:15;;;;;;;1999.90;999.90;;;10.90;99.90;;;;;;4952160;29;20213;-74
2022/05/06 02:35:43;;;;;;;1999.90;999.90;;;11.00;99.90;;;;;;4951896;29;20417;-74
2022/05/06 02:38:09;;;;;;;1999.90;999.90;;;11.00;99.90;;;;;;4952177;29;20419;-74
2022/05/06 02:40:36;;;;;;;1999.90;999.90;;;11.10;99.90;;;;;;4952106;29;20506;-74
2022/05/06 02:43:04;;;;;;;1999.90;999.90;;;11.00;99.90;;;;;;4951949;29;20859;-74
2022/05/06 02:45:30;;;;;;;1999.90;999.90;;;11.00;99.90;;;;;;4951710;29;20415;-74
2022/05/06 02:47:57;;;;;;;1999.90;999.90;;;11.00;99.90;;;;;;4951847;29;20687;-74
2022/05/06 02:50:23;;;;;;;1999.90;999.90;;;11.00;99.90;;;;;;4951941;29;20876;-74
2022/05/06 02:52:48;;;;;;;1999.90;999.90;;;11.00;99.90;;;;;;4951811;29;20445;-74
2022/05/06 02:55:14;;;;;;;1999.90;999.90;;;11.00;99.90;;;;;;4951607;29;20411;-74
2022/05/06 02:57:40;;;;;;;1999.90;999.90;;;11.00;99.90;;;;;;4951817;29;20198;-74
2022/05/06 03:00:07;;;;;;;1999.90;999.90;;;11.00;99.90;;;;;;4951884;29;20450;-74
2022/05/06 03:02:32;;;;;;;1999.90;999.90;;;11.00;99.90;;;;;;4951758;29;20588;-74
2022/05/06 03:04:58;;;;;;;1999.90;999.90;;;10.90;99.90;;;;;;5017340;28;20434;-74
2022/05/06 03:07:24;;;;;;;1999.90;999.90;;;11.00;99.90;;;;;;4951737;29;20187;-74
2022/05/06 03:09:52;;;;;;;1999.90;999.90;;;10.90;99.90;;;;;;4951644;29;20182;-74
2022/05/06 03:12:19;;;;;;;1999.90;999.90;;;10.90;99.90;;;;;;4951605;29;20411;-75
2022/05/06 03:14:45;;;;;;;1999.90;999.90;;;10.90;99.90;;;;;;4951364;29;20437;-74
2022/05/06 03:17:10;;;;;;;1999.90;999.90;;;10.90;99.90;;;;;;4951648;29;20414;-74
2022/05/06 03:19:36;;;;;;;1999.90;999.90;;;10.90;99.90;;;;;;4951525;29;20187;-74
2022/05/06 03:22:02;;;;;;;1999.90;999.90;;;10.80;99.90;;;;;;4951532;29;20181;-74
2022/05/06 03:24:28;;;;;;;1999.90;999.90;;;10.80;99.90;;;;;;4951137;29;20213;-74
2022/05/06 03:26:54;;;;;;;1999.90;999.90;;;10.70;99.90;;;;;;4951324;28;20454;-74
2022/05/06 03:29:19;;;;;;;1999.90;999.90;;;10.60;99.90;;;;;;4951423;29;20648;-74
2022/05/06 03:31:45;;;;;;;1999.90;999.90;;;10.50;99.90;;;;;;4951418;28;20413;-74
2022/05/06 03:34:11;;;;;;;1999.90;999.90;;;10.60;99.90;;;;;;4950941;29;20201;-74
2022/05/06 03:36:38;;;;;;;1999.90;999.90;;;10.50;99.90;;;;;;4951328;29;20196;-74
2022/05/06 03:39:04;;;;;;;1999.90;999.90;;;10.40;99.90;;;;;;4951249;29;20442;-74
2022/05/06 03:41:30;;;;;;;1999.90;999.90;;;10.40;99.90;;;;;;4951234;28;20407;-74
2022/05/06 03:43:55;;;;;;;1999.90;999.90;;;10.10;99.90;;;;;;4951091;29;20194;-74
2022/05/06 03:46:21;;;;;;;1999.90;999.90;;;10.00;99.90;;;;;;4951101;28;20493;-74
2022/05/06 03:48:46;;;;;;;1999.90;999.90;;;10.00;99.90;;;;;;4951113;28;20202;-74
2022/05/06 03:51:21;;;;;;;1999.90;999.90;;;10.00;99.90;;;;;;4951102;29;20651;-74
2022/05/06 03:53:52;;;;;;;1999.90;999.90;;;10.00;99.90;;;;;;4951041;29;20221;-74
2022/05/06 03:56:18;;;;;;;1999.90;999.90;;;10.00;99.90;;;;;;4950840;29;20419;-74
2022/05/06 03:58:44;;;;;;;1999.90;999.90;;;10.00;99.90;;;;;;4951069;29;20907;-74
2022/05/06 04:01:10;;;;;;;1999.90;999.90;;;9.90;99.90;;;;;;4951140;29;20471;-74
2022/05/06 04:03:36;;;;;;;1999.90;999.90;;;9.80;99.90;;;;;;4950696;29;20871;-74
2022/05/06 04:06:02;;;;;;;1999.90;999.90;;;9.70;99.90;;;;;;4950704;29;20544;-74
2022/05/06 04:08:28;;;;;;;1999.90;999.90;;;9.70;99.90;;;;;;4950906;29;20457;-74
2022/05/06 04:10:54;;;;;;;1999.90;999.90;;;9.70;99.90;;;;;;4950759;29;20410;-74
2022/05/06 04:13:20;;;;;;;1999.90;999.90;;;9.60;99.90;;;;;;4950754;29;20225;-74
2022/05/06 04:15:46;;;;;;;1999.90;999.90;;;9.60;99.90;;;;;;4990164;22;21675;-68
2022/05/06 04:18:12;;;;;;;1999.90;999.90;;;9.70;99.90;;;;;;4950845;29;20530;-69
2022/05/06 04:23:32;;;;;;;1999.90;999.90;;;9.70;99.90;;;;;;4950748;29;20469;-68
2022/05/06 04:26:02;;;;;;;1999.90;999.90;;;9.80;99.90;;;;;;4950348;29;20437;-69
2022/05/06 04:28:29;;;;;;;1999.90;999.90;;;9.90;99.90;;;;;;4950736;29;20496;-68
2022/05/06 04:30:55;;;;;;;1999.90;999.90;;;9.90;99.90;;;;;;4950520;29;20411;-68
2022/05/06 04:33:22;;;;;;;1999.90;999.90;;;9.90;99.90;;;;;;4950641;29;20918;-69
2022/05/06 04:35:48;;;;;;;1999.90;999.90;;;9.90;99.90;;;;;;4950174;29;20437;-68
2022/05/06 04:38:15;;;;;;;1999.90;999.90;;;9.80;99.90;;;;;;4950728;29;20465;-68
2022/05/06 04:40:41;;;;;;;1999.90;999.90;;;9.90;99.90;;;;;;4950558;29;20482;-69
2022/05/06 04:43:07;;;;;;;1999.90;999.90;;;9.80;99.90;;;;;;4950552;29;20418;-69
2022/05/06 04:45:52;;;;;;;1999.90;999.90;;;9.80;99.90;;;;;;4950137;29;20504;-68
2022/05/06 04:48:18;;;;;;;1999.90;999.90;;;9.90;99.90;;;;;;4950342;29;20463;-68
2022/05/06 04:50:45;;;;;;;1999.90;999.90;;;10.00;99.90;;;;;;4950756;28;20738;-68
2022/05/06 04:53:11;;;;;;;1999.90;999.90;;;10.10;99.90;;;;;;4953668;29;20402;-69
2022/05/06 04:55:38;;;;;;;1999.90;999.90;;;10.20;99.90;;;;;;4953393;29;20801;-68
2022/05/06 04:58:04;;;;;;;1999.90;999.90;;;10.20;99.90;;;;;;4953605;29;20418;-69
2022/05/06 05:00:31;;;;;;;1999.90;999.90;;;10.40;99.90;;;;;;4953572;29;20410;-68
2022/05/06 05:02:58;;;;;;;1999.90;999.90;;;10.50;99.90;;;;;;4953525;29;20811;-68
2022/05/06 05:05:24;;;;;;;1999.90;999.90;;;10.60;99.90;;;;;;4953190;29;20449;-69
2022/05/06 05:07:50;;;;;;;1999.90;999.90;;;10.60;99.90;;;;;;4953366;29;20466;-69
2022/05/06 05:10:16;;;;;;;1999.90;999.90;;;10.60;99.90;;;;;;4953509;29;20411;-68
2022/05/06 05:12:41;;;;;;;1999.90;999.90;;;10.70;99.90;;;;;;4953417;29;20737;-68
2022/05/06 05:15:07;;;;;;;1999.90;999.90;;;10.80;99.90;;;;;;4953090;29;20221;-68
2022/05/06 05:17:33;;;;;;;1999.90;999.90;;;10.90;99.90;;;;;;4953140;29;20210;-68
2022/05/06 05:19:59;;;;;;;1999.90;999.90;;;11.10;99.90;;;;;;4953318;29;20414;-69
2022/05/06 05:22:25;;;;;;;1999.90;999.90;;;11.10;99.90;;;;;;4953475;29;20167;-68
2022/05/06 05:24:51;;;;;;;1999.90;999.90;;;11.20;99.90;;;;;;4952971;29;20839;-68
2022/05/06 05:27:17;;;;;;;1999.90;999.90;;;11.40;99.90;;;;;;4953114;29;20218;-68
2022/05/06 05:29:43;;;;;;;1999.90;999.90;;;11.50;99.90;;;;;;4953260;28;20167;-69
2022/05/06 05:32:10;;;;;;;1999.90;999.90;;;11.60;99.90;;;;;;4953030;29;20403;-69
2022/05/06 05:34:36;;;;;;;1999.90;999.90;;;11.70;99.90;;;;;;4953010;29;20419;-69
2022/05/06 05:37:02;;;;;;;1999.90;999.90;;;11.80;99.90;;;;;;4952984;29;20462;-69
2022/05/06 05:39:27;;;;;;;1999.90;999.90;;;11.90;99.90;;;;;;4953036;29;20936;-69
2022/05/06 05:41:53;;;;;;;1999.90;999.90;;;12.00;99.90;;;;;;4952941;29;20225;-69
2022/05/06 05:49:48;;;;;;;1999.90;999.90;;;12.20;99.90;;;;;;4953195;29;20466;-69
2022/05/06 05:52:14;;;;;;;1999.90;999.90;;;12.20;99.90;;;;;;4952918;29;20450;-69
2022/05/06 05:54:39;;;;;;;1999.90;999.90;;;12.30;99.90;;;;;;4952522;29;20680;-69
2022/05/06 05:57:05;;;;;;;1999.90;999.90;;;12.40;99.90;;;;;;4952558;29;20218;-69
2022/05/06 05:59:31;;;;;;;1999.90;999.90;;;12.40;99.90;;;;;;4952731;29;20184;-69
2022/05/06 06:01:59;;;;;;;1999.90;999.90;;;12.50;99.90;;;;;;4952358;28;20439;-69
2022/05/06 06:04:24;;;;;;;1999.90;999.90;;;12.50;99.90;;;;;;4951705;29;20168;-69
2022/05/06 06:06:50;;;;;;;1999.90;999.90;;;12.50;99.90;;;;;;4952477;29;20471;-69
2022/05/06 06:09:17;;;;;;;1999.90;999.90;;;12.60;99.90;;;;;;4952654;29;20173;-69
2022/05/06 06:11:43;;;;;;;1999.90;999.90;;;12.60;99.90;;;;;;4952461;28;20703;-69
2022/05/06 06:14:09;;;;;;;1999.90;999.90;;;12.70;99.90;;;;;;4952296;29;20494;-69
2022/05/06 06:16:35;;;;;;;1999.90;999.90;;;12.80;99.90;;;;;;4952429;29;20221;-69
2022/05/06 06:19:00;;;;;;;1999.90;999.90;;;12.80;99.90;;;;;;4952505;29;20898;-69
2022/05/06 06:21:26;;;;;;;1999.90;999.90;;;13.00;99.90;;;;;;4952388;29;20173;-69
2022/05/06 06:23:52;;;;;;;1999.90;999.90;;;13.00;99.90;;;;;;4952327;29;20200;-69
2022/05/06 06:26:18;;;;;;;1999.90;999.90;;;13.10;99.90;;;;;;4951946;29;20457;-69
2022/05/06 06:28:43;;;;;;;1999.90;999.90;;;13.10;99.90;;;;;;4952263;29;20453;-69
2022/05/06 06:31:09;;;;;;;1999.90;999.90;;;13.20;99.90;;;;;;4952384;29;20339;-69
2022/05/06 06:33:37;;;;;;;1999.90;999.90;;;13.30;99.90;;;;;;4935234;29;20174;-71
2022/05/06 06:36:04;;;;;;;1999.90;999.90;;;13.40;99.90;;;;;;4953094;29;20714;-69
2022/05/06 06:38:30;;;;;;;1999.90;999.90;;;13.50;99.90;;;;;;4954222;29;20491;-69
2022/05/06 06:40:56;;;;;;;1999.90;999.90;;;13.60;99.90;;;;;;4953652;29;20415;-69
2022/05/06 06:43:21;;;;;;;1999.90;999.90;;;13.60;99.90;;;;;;4953876;29;20502;-69
2022/05/06 06:45:47;;;;;;;1999.90;999.90;;;13.70;99.90;;;;;;4952965;29;20197;-69
2022/05/06 06:48:13;;;;;;;1999.90;999.90;;;13.80;99.90;;;;;;4952963;29;20202;-69
2022/05/06 06:50:41;;;;;;;1999.90;999.90;;;13.80;99.90;;;;;;4953085;29;20171;-69
2022/05/06 06:53:07;;;;;;;1999.90;999.90;;;13.80;99.90;;;;;;4952615;29;20172;-69
2022/05/06 06:55:34;;;;;;;1999.90;999.90;;;14.00;99.90;;;;;;4953317;29;20417;-69
2022/05/06 06:57:59;;;;;;;1999.90;999.90;;;14.00;99.90;;;;;;4953332;29;20587;-69
2022/05/06 07:00:25;;;;;;;1999.90;999.90;;;14.10;99.90;;;;;;4952574;29;20423;-69
2022/05/06 07:02:51;;;;;;;1999.90;999.90;;;14.20;99.90;;;;;;4953274;29;20198;-69
2022/05/06 07:05:17;;;;;;;1999.90;999.90;;;14.30;99.90;;;;;;4953609;28;20915;-69
2022/05/06 07:13:17;;;;;;;1999.90;999.90;;;14.60;99.90;;;;;;4954332;29;20408;-69
2022/05/06 07:15:42;;;;;;;1999.90;999.90;;;14.60;99.90;;;;;;4951929;29;20455;-69
2022/05/06 07:18:08;;;;;;;1999.90;999.90;;;14.80;99.90;;;;;;4952294;29;20911;-69
2022/05/06 07:20:34;;;;;;;1999.90;999.90;;;14.70;99.90;;;;;;4952297;29;20201;-69
2022/05/06 07:22:59;;;;;;;1999.90;999.90;;;14.70;99.90;;;;;;4951529;29;20173;-69
2022/05/06 07:25:25;;;;;;;1999.90;999.90;;;14.70;99.90;;;;;;4951134;29;20548;-68
2022/05/06 07:27:50;;;;;;;1999.90;999.90;;;14.70;99.90;;;;;;4951378;29;20235;-69
2022/05/06 07:30:16;;;;;;;1999.90;999.90;;;14.60;99.90;;;;;;4951357;29;20393;-69
2022/05/06 07:32:41;;;;;;;1999.90;999.90;;;14.70;99.90;;;;;;4951394;29;20176;-69
2022/05/06 07:35:08;;;;;;;1999.90;999.90;;;14.70;99.90;;;;;;4951014;29;20171;-69
2022/05/06 07:37:34;;;;;;;1999.90;999.90;;;14.80;99.90;;;;;;4951402;28;20222;-68
2022/05/06 07:40:03;;;;;;;1999.90;999.90;;;14.90;99.90;;;;;;4951321;29;20472;-69
2022/05/06 07:42:31;;;;;;;1999.90;999.90;;;14.90;99.90;;;;;;4951341;29;20825;-69
2022/05/06 07:44:58;;;;;;;1999.90;999.90;;;15.00;99.90;;;;;;4950948;29;20414;-69
2022/05/06 07:47:23;;;;;;;1999.90;999.90;;;15.10;99.90;;;;;;4950992;29;20978;-69
2022/05/06 07:49:49;;;;;;;1999.90;999.90;;;15.20;99.90;;;;;;4951170;29;20487;-69
2022/05/06 07:52:15;;;;;;;1999.90;999.90;;;15.30;99.90;;;;;;4951136;29;20174;-69
2022/05/06 07:54:40;;;;;;;1999.90;999.90;;;15.40;99.90;;;;;;4951003;29;20182;-69
2022/05/06 07:57:06;;;;;;;1999.90;999.90;;;15.50;99.90;;;;;;4944576;29;20821;-68
2022/05/06 07:59:32;;;;;;;1999.90;999.90;;;15.60;99.90;;;;;;4950034;29;20175;-68
2022/05/06 08:04:47;;;;;;;1999.90;999.90;;;15.80;99.90;;;;;;4949656;29;20603;-67
2022/05/06 08:07:13;;;;;;;1999.90;999.90;;;15.80;99.90;;;;;;4950132;29;20494;-68
2022/05/06 08:09:38;;;;;;;1999.90;999.90;;;16.00;99.90;;;;;;4950194;28;20447;-68
2022/05/06 08:12:04;;;;;;;1999.90;999.90;;;16.20;99.90;;;;;;4949835;28;20612;-69
2022/05/06 08:14:30;;;;;;;1999.90;999.90;;;16.30;99.90;;;;;;4949691;28;20266;-69
2022/05/06 08:16:56;;;;;;;1999.90;999.90;;;16.30;99.90;;;;;;4950146;28;20557;-69
2022/05/06 08:19:21;;;;;;;1999.90;999.90;;;16.40;99.90;;;;;;4949836;28;20862;-68
2022/05/06 08:21:47;;;;;;;1999.90;999.90;;;16.50;99.90;;;;;;4950447;28;20183;-68
2022/05/06 08:24:13;;;;;;;1999.90;999.90;;;16.60;99.90;;;;;;4949969;28;20248;-68
2022/05/06 08:26:38;;;;;;;1999.90;999.90;;;16.70;99.90;;;;;;4951162;28;20194;-67
2022/05/06 08:29:04;;;;;;;1999.90;999.90;;;16.80;99.90;;;;;;4953283;28;20174;-68
2022/05/06 08:31:37;;;;;;;1999.90;999.90;;;16.90;99.90;;;;;;4953391;28;20639;-68
2022/05/06 08:34:04;;;;;;;1999.90;999.90;;;17.10;99.90;;;;;;4952739;28;20179;-68
2022/05/06 08:36:29;;;;;;;1999.90;999.90;;;17.10;99.90;;;;;;4953246;29;20465;-67
2022/05/06 08:38:55;;;;;;;1999.90;999.90;;;17.10;99.90;;;;;;4953305;28;20446;-67
2022/05/06 08:41:23;;;;;;;1999.90;999.90;;;17.30;99.90;;;;;;4952869;28;20633;-68
2022/05/06 08:43:48;;;;;;;1999.90;999.90;;;17.40;99.90;;;;;;4953086;28;20269;-68
2022/05/06 08:51:48;;;;;;;1999.90;999.90;;;17.50;99.90;;;;;;4953508;29;20416;-68
2022/05/06 08:54:16;;;;;;;1999.90;999.90;;;17.40;99.90;;;;;;4952697;28;20423;-69
2022/05/06 08:56:41;;;;;;;1999.90;999.90;;;17.50;99.90;;;;;;4952462;29;20421;-68
2022/05/06 08:59:08;;;;;;;1999.90;999.90;;;17.50;99.90;;;;;;4952898;28;20421;-68
2022/05/06 09:01:34;;;;;;;1999.90;999.90;;;17.60;99.90;;;;;;4952969;29;20257;-67
2022/05/06 09:03:59;;;;;;;1999.90;999.90;;;17.70;99.90;;;;;;4952381;28;20497;-68
2022/05/06 09:06:30;;;;;;;1999.90;999.90;;;17.70;99.90;;;;;;4952840;28;20459;-68
2022/05/06 09:08:58;;;;;;;1999.90;999.90;;;17.70;99.90;;;;;;4952848;28;20208;-68
2022/05/06 09:16:39;;;;;;;1999.90;999.90;;;17.40;99.90;;;;;;4961893;28;20416;-68
2022/05/06 09:17:19;;;;;;;1999.90;999.90;;;17.50;99.90;;;;;;4952303;28;20490;-68
2022/05/06 09:19:45;;;;;;;1999.90;999.90;;;17.60;99.90;;;;;;4952400;28;20415;-68
2022/05/06 09:22:13;;;;;;;1999.90;999.90;;;17.60;99.90;;;;;;4952586;28;20415;-68
2022/05/06 09:24:40;;;;;;;1999.90;999.90;;;17.60;99.90;;;;;;4951998;28;20261;-69
2022/05/06 09:27:09;;;;;;;1999.90;999.90;;;17.80;99.90;;;;;;4951895;28;20526;-66
2022/05/06 09:29:44;;;;;;;1999.90;999.90;;;18.00;99.90;;;;;;4952285;29;20418;-68
2022/05/06 09:32:19;;;;;;;1999.90;999.90;;;17.90;99.90;;;;;;4952820;28;20808;-67
2022/05/06 09:34:50;;;;;;;1999.90;999.90;;;17.80;99.90;;;;;;4951893;28;20413;-67
2022/05/06 09:37:42;;;;;;;1999.90;999.90;;;17.90;99.90;;;;;;4952269;28;20433;-68
2022/05/06 09:40:12;;;;;;;1999.90;999.90;;;18.00;99.90;;;;;;4952099;29;20808;-68
2022/05/06 09:42:46;;;;;;;1999.90;999.90;;;18.20;99.90;;;;;;4952445;29;20427;-68
2022/05/06 09:45:14;;;;;;;1999.90;999.90;;;18.30;99.90;;;;;;4952033;29;20915;-67
2022/05/06 09:47:40;;;;;;;1999.90;999.90;;;18.50;99.90;;;;;;4951782;28;20472;-68
2022/05/06 09:50:08;;;;;;;1999.90;999.90;;;18.50;99.90;;;;;;4952198;28;20414;-68
2022/05/06 09:52:35;;;;;;;1999.90;999.90;;;18.60;99.90;;;;;;4952073;28;20788;-68
2022/05/06 09:55:01;;;;;;;1999.90;999.90;;;18.70;99.90;;;;;;4951529;29;21151;-68
2022/05/06 09:57:29;;;;;;;1999.90;999.90;;;18.80;99.90;;;;;;4951948;28;20441;-68
2022/05/06 09:59:54;;;;;;;1999.90;999.90;;;18.80;99.90;;;;;;4952007;29;20775;-68
2022/05/06 10:02:20;;;;;;;1999.90;999.90;;;19.00;99.90;;;;;;4951965;28;20418;-68
2022/05/06 10:04:49;;;;;;;1999.90;999.90;;;19.10;99.90;;;;;;4951655;28;20216;-68
2022/05/06 10:07:16;;;;;;;1999.90;999.90;;;19.10;99.90;;;;;;4951832;29;20210;-67
2022/05/06 10:09:56;;;;;;;1999.90;999.90;;;19.40;99.90;;;;;;4951741;28;20396;-67
2022/05/06 10:12:24;;;;;;;1999.90;999.90;;;19.70;99.90;;;;;;4951953;29;20926;-68
2022/05/06 10:14:51;;;;;;;1999.90;999.90;;;20.10;99.90;;;;;;4951572;29;20439;-68
2022/05/06 10:17:51;;;;;;;1999.90;999.90;;;20.10;99.90;;;;;;4963884;23;20952;-74
2022/05/06 10:20:43;;;;;;;1999.90;999.90;;;20.10;99.90;;;;;;4951727;28;20403;-74
2022/05/06 10:23:15;;;;;;;1999.90;999.90;;;20.40;99.90;;;;;;4951741;28;20400;-75
2022/05/06 10:25:44;;;;;;;1999.90;999.90;;;20.60;99.90;;;;;;4950518;28;20826;-75
2022/05/06 10:34:13;;;;;;;1999.90;999.90;;;20.50;99.90;;;;;;4951136;29;21079;-75
2022/05/06 10:36:45;;;;;;;1999.90;999.90;;;20.60;99.90;;;;;;4950534;28;20512;-74
2022/05/06 10:39:21;;;;;;;1999.90;999.90;;;20.90;99.90;;;;;;4951589;28;20461;-75
2022/05/06 10:42:17;;;;;;;1999.90;999.90;;;21.10;99.90;;;;;;4951790;28;20417;-75
2022/05/06 10:44:44;;;;;;;1999.90;999.90;;;21.50;99.90;;;;;;4951282;28;20379;-75
2022/05/06 10:47:13;;;;;;;1999.90;999.90;;;21.60;99.90;;;;;;4951101;28;20455;-74
2022/05/06 10:49:38;;;;;;;1999.90;999.90;;;21.60;99.80;;;;;;4951002;28;20418;-74
2022/05/06 10:52:13;;;;;;;1999.90;999.90;;;21.90;99.90;;;;;;4951587;28;20408;-74
2022/05/06 10:54:42;;;;;;;1999.90;999.90;;;22.00;99.90;;;;;;4950842;28;20252;-75
2022/05/06 10:57:09;;;;;;;1999.90;999.90;;;22.10;96.10;;;;;;4951307;28;20411;-77
2022/05/06 10:59:49;;;;;;;1999.90;999.90;;;22.30;98.50;;;;;;4951410;28;20418;-77
2022/05/06 11:02:16;;;;;;;1999.90;999.90;;;21.70;99.90;;;;;;4950081;28;20422;-76
2022/05/06 11:04:51;;;;;;;1999.90;999.90;;;21.70;99.50;;;;;;4951193;28;20419;-76
2022/05/06 11:07:17;;;;;;;1999.90;999.90;;;21.50;99.00;;;;;;4951272;28;20428;-76
2022/05/06 11:09:44;;;;;;;1999.90;999.90;;;21.40;99.90;;;;;;4950675;28;20424;-75
2022/05/06 11:12:10;;;;;;;1999.90;999.90;;;21.40;99.90;;;;;;4951484;28;20477;-76
2022/05/06 11:14:35;;;;;;;1999.90;999.90;;;21.40;99.90;;;;;;4951037;28;20399;-75
2022/05/06 11:17:15;;;;;;;1999.90;999.90;;;21.60;99.90;;;;;;4950654;28;20977;-76
2022/05/06 11:19:40;;;;;;;1999.90;999.90;;;21.70;99.90;;;;;;4951302;28;20748;-76
2022/05/06 11:22:10;;;;;;;1999.90;999.90;;;21.60;99.90;;;;;;4949943;28;20505;-76
2022/05/06 11:24:36;;;;;;;1999.90;999.90;;;21.60;98.80;;;;;;4950470;28;20565;-76
2022/05/06 11:27:19;;;;;;;1999.90;999.90;;;21.60;97.00;;;;;;4951020;28;20501;-76
2022/05/06 11:29:49;;;;;;;1999.90;999.90;;;21.60;96.80;;;;;;4951076;28;20409;-75
2022/05/06 11:32:15;;;;;;;1999.90;999.90;;;21.80;98.50;;;;;;4950675;28;20503;-75
2022/05/06 11:35:17;;;;;;;1999.90;999.90;;;22.10;95.80;;;;;;4950742;28;20379;-75
2022/05/06 11:37:43;;;;;;;1999.90;999.90;;;22.40;93.70;;;;;;4951017;28;20583;-75
2022/05/06 11:42:50;;;;;;;1999.90;999.90;;;22.70;99.00;;;;;;4951063;28;20177;-75
2022/05/06 11:48:04;;;;;;;1999.90;999.90;;;22.40;93.10;;;;;;4950493;29;20213;-76
2022/05/06 11:50:30;;;;;;;1999.90;999.90;;;22.70;86.00;;;;;;4950942;28;20388;-77
2022/05/06 11:52:58;;;;;;;1999.90;999.90;;;23.20;90.20;;;;;;4950894;28;20464;-77
2022/05/06 11:55:24;;;;;;;1999.90;999.90;;;23.60;82.80;;;;;;4950124;28;20754;-76
2022/05/06 11:57:50;;;;;;;1999.90;999.90;;;23.60;80.40;;;;;;4950709;28;20418;-76
2022/05/06 12:00:16;;;;;;;1999.90;999.90;;;23.60;69.80;;;;;;4950674;28;20244;-76
2022/05/06 12:02:49;;;;;;;1999.90;999.90;;;24.30;66.40;;;;;;4953389;28;20258;-76
2022/05/06 12:05:15;;;;;;;1999.90;999.90;;;25.30;69.50;;;;;;4954614;28;20402;-76
2022/05/06 12:07:42;;;;;;;1999.90;999.90;;;25.50;53.10;;;;;;4954087;28;20991;-76
2022/05/06 12:10:09;;;;;;;1999.90;999.90;;;25.90;53.10;;;;;;4953539;28;20412;-74
2022/05/06 12:13:03;;;;;;;1999.90;999.90;;;26.90;50.30;;;;;;4954101;28;20844;-75
2022/05/06 12:15:36;;;;;;;1999.90;999.90;;;28.00;41.90;;;;;;4954370;28;20410;-76
2022/05/06 12:18:09;;;;;;;1999.90;999.90;;;29.00;40.50;;;;;;4956495;28;20462;-76
2022/05/06 12:20:46;;;;;;;1999.90;999.90;;;29.30;29.70;;;;;;4957001;29;20417;-76
2022/05/06 12:23:13;;;;;;;1999.90;999.90;;;29.30;26.50;;;;;;4954682;28;20428;-76
2022/05/06 12:25:40;;;;;;;1999.90;999.90;;;29.20;27.40;;;;;;4956657;28;20498;-77
2022/05/06 12:28:10;;;;;;;1999.90;999.90;;;29.60;27.70;;;;;;4956894;28;20450;-76
2022/05/06 12:30:38;;;;;;;1999.90;999.90;;;30.00;25.70;;;;;;4956033;28;20415;-75
2022/05/06 12:33:07;;;;;;;1999.90;999.90;;;30.60;23.80;;;;;;4956401;28;20406;-76
2022/05/06 12:35:54;;;;;;;1999.90;999.90;;;30.80;23.80;;;;;;4956314;28;20411;-75
2022/05/06 12:38:21;;;;;;;1999.90;999.90;;;30.60;23.20;;;;;;4955791;28;20758;-77
2022/05/06 12:40:47;;;;;;;1999.90;999.90;;;30.20;22.40;;;;;;4956549;28;20414;-76
2022/05/06 12:43:13;;;;;;;1999.90;999.90;;;29.80;22.50;;;;;;4956085;28;20534;-76
2022/05/06 12:45:53;;;;;;;1999.90;999.90;;;29.40;24.30;;;;;;4953663;28;20462;-75